Time;durP1;ratioP1;P1;durP2;ratioP2;P2;SDS_P1;SDS_P2;PMS_P1;PMS_P2;Temp;Humidity;BMP_temperature;BMP_pressure;BME280_temperature;BME280_humidity;BME280_pressure;Samples;Min_cycle;Max_cycle;Signal;HPM_P1;HPM_P2
2022/05/27 00:02:44;;;;;;;11.27;6.45;;;;;;;14.40;100.00;100651.69;6076356;29;20044;-92
2022/05/27 00:05:54;;;;;;;15.75;6.72;;;;;;;14.48;100.00;100651.78;6082999;29;20600;-90
2022/05/27 00:08:56;;;;;;;12.48;6.40;;;;;;;14.59;100.00;100651.63;6079406;29;20040;-91
2022/05/27 00:11:59;;;;;;;12.30;6.60;;;;;;;14.58;100.00;100649.16;6064585;29;20083;-90
2022/05/27 00:15:01;;;;;;;8.95;6.20;;;;;;;14.62;100.00;100650.53;6067264;29;20149;-91
2022/05/27 00:18:03;;;;;;;11.15;6.03;;;;;;;14.56;100.00;100633.69;6044531;29;20152;-92
2022/05/27 00:21:05;;;;;;;9.02;6.32;;;;;;;14.56;100.00;100630.28;6058050;29;20088;-91
2022/05/27 00:24:07;;;;;;;9.90;6.18;;;;;;;14.62;100.00;100627.91;6072055;29;20827;-90
2022/05/27 00:27:09;;;;;;;10.15;6.22;;;;;;;14.71;100.00;100627.97;6056099;29;20491;-92
2022/05/27 00:30:11;;;;;;;10.90;6.97;;;;;;;14.74;100.00;100623.31;6060786;29;20052;-90
2022/05/27 00:33:13;;;;;;;10.05;6.38;;;;;;;14.70;100.00;100629.78;6067827;29;20422;-91
2022/05/27 00:36:15;;;;;;;10.60;5.97;;;;;;;14.71;100.00;100612.34;6071449;29;20049;-91
2022/05/27 00:39:20;;;;;;;11.52;6.45;;;;;;;14.69;100.00;100622.13;6078412;29;20055;-91
2022/05/27 00:42:22;;;;;;;11.55;7.25;;;;;;;14.62;100.00;100614.06;6070740;29;20137;-89
2022/05/27 00:45:25;;;;;;;8.93;6.95;;;;;;;14.70;100.00;100598.50;6058397;29;20063;-91
2022/05/27 00:48:28;;;;;;;9.88;7.32;;;;;;;14.61;100.00;100604.63;6065993;29;20375;-91
2022/05/27 00:51:34;;;;;;;10.10;6.65;;;;;;;14.56;100.00;100609.44;6062297;29;20049;-92
2022/05/27 00:54:36;;;;;;;12.15;8.00;;;;;;;14.33;100.00;100603.75;6059635;29;20056;-90
2022/05/27 00:57:46;;;;;;;11.23;7.95;;;;;;;14.24;100.00;100600.22;6059777;29;20406;-89
2022/05/27 01:00:49;;;;;;;14.13;8.63;;;;;;;14.17;100.00;100591.34;6048824;29;20601;-91
2022/05/27 01:03:52;;;;;;;12.60;8.43;;;;;;;14.02;100.00;100596.19;6061540;29;20169;-92
2022/05/27 01:06:54;;;;;;;14.18;8.50;;;;;;;13.98;100.00;100600.84;6053245;29;20173;-92
2022/05/27 01:10:01;;;;;;;15.48;8.32;;;;;;;13.93;100.00;100584.81;6063328;29;20037;-90
2022/05/27 01:13:30;;;;;;;11.57;8.02;;;;;;;13.96;100.00;100594.97;6058459;29;20049;-91
2022/05/27 01:16:47;;;;;;;11.02;7.50;;;;;;;13.97;100.00;100577.56;6058133;29;20132;-89
2022/05/27 01:20:19;;;;;;;9.45;7.50;;;;;;;13.89;100.00;100586.09;6051688;29;20053;-89
2022/05/27 01:23:48;;;;;;;12.07;7.88;;;;;;;13.86;100.00;100586.34;6057447;29;20053;-89
2022/05/27 01:27:13;;;;;;;9.88;8.05;;;;;;;13.85;100.00;100581.31;6066648;29;20100;-90
2022/05/27 01:30:28;;;;;;;10.23;7.70;;;;;;;13.82;100.00;100584.19;6068832;29;20080;-90
2022/05/27 01:34:03;;;;;;;9.40;7.38;;;;;;;13.79;100.00;100580.09;6068064;29;20789;-90
2022/05/27 01:37:16;;;;;;;12.15;8.00;;;;;;;13.75;100.00;100573.53;6053416;29;20052;-90
2022/05/27 01:40:33;;;;;;;9.38;7.25;;;;;;;13.74;100.00;100575.31;6073694;29;20068;-90
2022/05/27 01:43:59;;;;;;;8.63;7.10;;;;;;;13.73;100.00;100572.84;6062014;29;20051;-89
2022/05/27 01:47:04;;;;;;;9.63;7.38;;;;;;;13.67;100.00;100584.63;6048324;29;20108;-89
2022/05/27 01:50:19;;;;;;;9.88;7.75;;;;;;;13.69;100.00;100571.47;6052855;29;20044;-89
2022/05/27 01:53:34;;;;;;;11.85;6.95;;;;;;;13.76;100.00;100570.78;6058222;29;20534;-90
2022/05/27 01:56:47;;;;;;;9.65;6.72;;;;;;;13.73;100.00;100576.25;6067395;29;20607;-89
2022/05/27 02:00:13;;;;;;;8.55;6.75;;;;;;;13.64;100.00;100571.06;6047971;29;20069;-89
2022/05/27 02:03:50;;;;;;;8.48;6.40;;;;;;;13.58;100.00;100578.47;6050689;29;20132;-88
2022/05/27 02:07:10;;;;;;;7.72;5.07;;;;;;;13.52;100.00;100562.63;5964539;29;20574;-89
2022/05/27 02:10:33;;;;;;;7.43;5.50;;;;;;;13.55;100.00;100557.94;5952062;29;20112;-89
2022/05/27 02:13:41;;;;;;;7.88;4.32;;;;;;;13.47;100.00;100563.03;5967087;29;20054;-89
2022/05/27 02:16:43;;;;;;;4.50;4.10;;;;;;;13.51;100.00;100550.56;5963373;29;20557;-90
2022/05/27 02:20:06;;;;;;;4.88;3.85;;;;;;;13.49;100.00;100550.72;5952307;29;20055;-90
2022/05/27 02:23:23;;;;;;;5.30;4.18;;;;;;;13.41;100.00;100555.78;5953673;29;20058;-88
2022/05/27 02:26:29;;;;;;;5.20;4.28;;;;;;;13.42;100.00;100580.84;5950591;29;20047;-86
2022/05/27 02:29:33;;;;;;;5.70;4.45;;;;;;;13.39;100.00;100608.88;5951734;29;20142;-88
2022/05/27 02:32:44;;;;;;;3.25;2.03;;;;;;;13.03;100.00;100624.16;5932923;29;20050;-90
2022/05/27 02:35:50;;;;;;;3.97;1.70;;;;;;;12.74;100.00;100618.91;5956818;29;20141;-87
2022/05/27 02:38:52;;;;;;;2.15;1.83;;;;;;;12.63;100.00;100632.81;5950711;29;20418;-88
2022/05/27 02:42:04;;;;;;;5.20;1.80;;;;;;;12.47;100.00;100633.28;5992414;29;20081;-88
2022/05/27 02:45:43;;;;;;;2.17;1.98;;;;;;;12.42;100.00;100630.25;6070908;29;20051;-90
2022/05/27 02:49:17;;;;;;;3.63;1.70;;;;;;;12.38;100.00;100627.13;6069037;29;20084;-89
2022/05/27 02:52:50;;;;;;;4.03;1.70;;;;;;;12.26;100.00;100626.38;6060639;29;20064;-88
2022/05/27 02:56:24;;;;;;;1.20;1.10;;;;;;;12.26;100.00;100635.94;6063822;29;20040;-90
2022/05/27 02:59:28;;;;;;;2.03;1.40;;;;;;;12.11;100.00;100637.22;6066960;29;20177;-87
2022/05/27 03:02:30;;;;;;;1.08;0.95;;;;;;;11.94;100.00;100644.63;6068126;29;20055;-88
2022/05/27 03:06:12;;;;;;;1.83;1.38;;;;;;;11.82;100.00;100612.72;6067842;29;20171;-88
2022/05/27 03:09:29;;;;;;;1.67;1.30;;;;;;;11.90;100.00;100616.47;6065882;29;20056;-88
2022/05/27 03:12:50;;;;;;;1.85;1.42;;;;;;;11.91;100.00;100595.63;6053390;29;20063;-88
2022/05/27 03:15:57;;;;;;;3.08;1.67;;;;;;;11.81;100.00;100631.00;6060068;29;20066;-87
2022/05/27 03:19:37;;;;;;;2.55;1.48;;;;;;;11.83;100.00;100622.16;6058440;29;20063;-87
2022/05/27 03:23:04;;;;;;;3.20;1.38;;;;;;;11.71;100.00;100594.66;6059005;29;20197;-87
2022/05/27 03:26:24;;;;;;;1.73;1.20;;;;;;;11.78;100.00;100589.78;6058598;29;20052;-87
2022/05/27 03:29:49;;;;;;;1.63;1.37;;;;;;;11.90;100.00;100613.88;6068915;29;20140;-88
2022/05/27 03:33:18;;;;;;;2.67;1.25;;;;;;;11.95;100.00;100624.69;6078205;29;20055;-88
2022/05/27 03:36:43;;;;;;;3.15;1.90;;;;;;;11.92;100.00;100615.41;6062641;29;20161;-87
2022/05/27 03:39:49;;;;;;;3.53;1.80;;;;;;;11.94;100.00;100603.13;6045736;29;20049;-88
2022/05/27 03:42:53;;;;;;;1.88;1.60;;;;;;;11.99;100.00;100615.72;6052705;29;20053;-88
2022/05/27 03:46:00;;;;;;;2.35;2.00;;;;;;;12.03;100.00;100619.72;6060676;29;20471;-88
2022/05/27 03:49:04;;;;;;;2.10;1.77;;;;;;;12.12;100.00;100615.50;6060612;29;20056;-88
2022/05/27 03:52:12;;;;;;;2.30;1.95;;;;;;;12.13;100.00;100620.59;6047847;29;20545;-87
2022/05/27 03:55:18;;;;;;;2.97;2.15;;;;;;;12.18;100.00;100615.81;6069397;29;20197;-89
2022/05/27 03:58:20;;;;;;;3.70;2.20;;;;;;;12.18;100.00;100625.41;6069303;29;20040;-88
2022/05/27 04:01:25;;;;;;;4.10;2.40;;;;;;;12.21;100.00;100635.50;6061614;29;20145;-88
2022/05/27 04:04:28;;;;;;;4.78;2.63;;;;;;;12.34;100.00;100632.69;6087636;29;20052;-88
2022/05/27 04:07:31;;;;;;;3.17;2.70;;;;;;;12.35;100.00;100647.34;6068080;29;20581;-88
2022/05/27 04:10:33;;;;;;;5.53;2.70;;;;;;;12.37;100.00;100633.28;6061815;29;20498;-89
2022/05/27 04:13:35;;;;;;;4.18;2.63;;;;;;;12.37;100.00;100641.06;6049447;29;20056;-89
2022/05/27 04:16:37;;;;;;;4.18;2.88;;;;;;;12.48;100.00;100643.56;6059252;29;20495;-89
2022/05/27 04:19:40;;;;;;;4.88;2.90;;;;;;;12.51;100.00;100655.44;6075776;29;20577;-91
2022/05/27 04:22:42;;;;;;;5.00;3.38;;;;;;;12.58;100.00;100641.00;6068756;29;20041;-90
2022/05/27 04:25:48;;;;;;;10.52;2.97;;;;;;;12.60;100.00;100649.47;6043795;29;20058;-88
2022/05/27 04:28:50;;;;;;;4.18;3.05;;;;;;;12.59;100.00;100647.00;6069377;29;20040;-91
2022/05/27 04:31:52;;;;;;;4.72;2.97;;;;;;;12.60;100.00;100654.69;6053229;29;20055;-91
2022/05/27 04:34:56;;;;;;;4.78;3.38;;;;;;;12.60;100.00;100646.06;6055610;29;20068;-93
2022/05/27 04:38:00;;;;;;;4.88;3.10;;;;;;;12.66;100.00;100650.72;6083027;29;20048;-92
2022/05/27 04:41:02;;;;;;;6.85;4.05;;;;;;;12.66;100.00;100651.53;6076068;29;20060;-92
2022/05/27 04:44:04;;;;;;;5.55;3.35;;;;;;;12.71;100.00;100659.75;6073820;29;20151;-89
2022/05/27 04:47:07;;;;;;;4.40;3.40;;;;;;;12.75;100.00;100655.13;6082679;29;20120;-93
2022/05/27 04:50:11;;;;;;;7.00;3.53;;;;;;;12.79;100.00;100661.69;6074124;29;20045;-91
2022/05/27 04:53:13;;;;;;;7.40;3.38;;;;;;;12.82;100.00;100664.03;6054293;29;20052;-93
2022/05/27 04:56:15;;;;;;;7.13;3.55;;;;;;;12.87;100.00;100659.28;6064557;29;20048;-91
2022/05/27 04:59:18;;;;;;;8.05;3.70;;;;;;;12.89;100.00;100666.91;6070688;29;20800;-91
2022/05/27 05:02:21;;;;;;;6.43;3.55;;;;;;;12.90;100.00;100658.19;6057152;29;20049;-93
2022/05/27 05:05:26;;;;;;;6.97;3.53;;;;;;;12.91;100.00;100670.22;6044919;29;20068;-91
2022/05/27 05:08:34;;;;;;;10.40;3.67;;;;;;;12.95;100.00;100678.59;6051513;29;20052;-91
2022/05/27 05:11:36;;;;;;;4.00;3.15;;;;;;;12.92;100.00;100675.28;6077398;29;20123;-91
2022/05/27 05:14:39;;;;;;;5.82;3.25;;;;;;;12.91;100.00;100680.59;6071061;29;20048;-90
2022/05/27 05:17:42;;;;;;;6.50;3.58;;;;;;;12.96;100.00;100680.22;6071519;29;20581;-92
2022/05/27 05:20:45;;;;;;;5.35;3.55;;;;;;;13.05;100.00;100690.63;6078408;29;20729;-90
2022/05/27 05:23:47;;;;;;;6.15;3.55;;;;;;;13.09;100.00;100684.22;6056926;29;20107;-91
2022/05/27 05:26:49;;;;;;;7.20;3.33;;;;;;;13.12;100.00;100691.75;6067217;29;20072;-91
2022/05/27 05:29:53;;;;;;;7.53;3.45;;;;;;;13.25;100.00;100688.91;6054016;29;20127;-91
2022/05/27 05:32:55;;;;;;;6.63;3.40;;;;;;;13.30;100.00;100696.31;6083161;29;21144;-91
2022/05/27 05:35:57;;;;;;;5.82;3.22;;;;;;;13.31;100.00;100687.56;6048794;29;20057;-89
2022/05/27 05:38:58;;;;;;;5.35;3.15;;;;;;;13.49;100.00;100685.94;6070460;29;20047;-90
2022/05/27 05:42:02;;;;;;;7.68;3.83;;;;;;;13.57;100.00;100682.66;6078454;29;20053;-90
2022/05/27 05:45:05;;;;;;;6.32;3.83;;;;;;;13.57;100.00;100680.88;6052156;29;20518;-89
2022/05/27 05:48:08;;;;;;;9.65;3.67;;;;;;;13.62;100.00;100684.84;6043824;29;20036;-95
2022/05/27 05:51:10;;;;;;;6.38;3.70;;;;;;;13.58;100.00;100695.50;6084093;29;20040;-92
2022/05/27 05:54:11;;;;;;;5.13;3.72;;;;;;;13.53;100.00;100697.69;6041736;29;20044;-90
2022/05/27 05:57:14;;;;;;;9.07;3.80;;;;;;;13.66;100.00;100694.00;6051566;29;20040;-90
2022/05/27 06:00:22;;;;;;;6.53;4.07;;;;;;;13.66;100.00;100691.41;6067036;29;20289;-91
2022/05/27 06:03:24;;;;;;;6.63;3.63;;;;;;;13.61;100.00;100693.59;6057170;29;20088;-90
2022/05/27 06:06:26;;;;;;;7.93;3.38;;;;;;;13.77;100.00;100697.31;6037160;29;20045;-91
2022/05/27 06:09:28;;;;;;;6.05;3.28;;;;;;;13.63;100.00;100687.31;6064243;29;20506;-90
2022/05/27 06:12:33;;;;;;;5.00;3.50;;;;;;;13.64;100.00;100688.13;6074913;29;20127;-92
2022/05/27 06:15:36;;;;;;;7.63;3.53;;;;;;;13.65;100.00;100687.19;6067119;29;20071;-89
2022/05/27 06:18:39;;;;;;;8.68;3.75;;;;;;;13.90;100.00;100691.81;6069620;29;20095;-89
2022/05/27 06:21:41;;;;;;;8.15;4.00;;;;;;;14.18;100.00;100694.50;6048387;29;20053;-89
2022/05/27 06:24:43;;;;;;;8.38;3.70;;;;;;;14.36;100.00;100689.38;6070795;29;20087;-90
2022/05/27 06:27:47;;;;;;;8.70;3.10;;;;;;;14.50;100.00;100695.94;6072608;29;20092;-89
2022/05/27 06:34:25;;;;;;;8.80;3.17;;;;;;;14.76;100.00;100699.56;6063040;29;20059;-90
2022/05/27 06:37:26;;;;;;;9.43;3.40;;;;;;;14.82;100.00;100700.78;6066632;29;20136;-88
2022/05/27 06:40:28;;;;;;;5.53;3.10;;;;;;;14.64;100.00;100713.75;6087853;29;20048;-89
2022/05/27 06:43:31;;;;;;;7.15;2.92;;;;;;;14.60;100.00;100713.19;6071598;29;20502;-90
2022/05/27 06:46:34;;;;;;;6.00;2.83;;;;;;;14.67;100.00;100708.25;6072457;29;20044;-89
2022/05/27 06:49:37;;;;;;;10.57;3.42;;;;;;;14.68;100.00;100722.91;6063603;29;20049;-89
2022/05/27 06:52:40;;;;;;;7.45;3.03;;;;;;;14.44;100.00;100726.78;6057218;29;20045;-89
2022/05/27 06:55:53;;;;;;;4.72;2.55;;;;;;;14.49;100.00;100717.75;6050042;29;20044;-88
2022/05/27 06:58:56;;;;;;;5.45;2.65;;;;;;;14.84;100.00;100730.94;6068304;29;20056;-89
2022/05/27 07:01:59;;;;;;;4.65;2.65;;;;;;;15.02;100.00;100727.56;6061972;29;20052;-89
2022/05/27 07:05:01;;;;;;;7.05;2.58;;;;;;;15.01;100.00;100724.13;6079063;29;20044;-88
2022/05/27 07:08:05;;;;;;;4.47;2.35;;;;;;;14.94;100.00;100724.88;6074951;29;20044;-88
2022/05/27 07:11:07;;;;;;;5.63;2.30;;;;;;;14.74;100.00;100724.94;6030119;29;20088;-87
2022/05/27 07:14:09;;;;;;;6.63;2.65;;;;;;;14.58;100.00;100722.09;6070405;29;20523;-88
2022/05/27 07:17:11;;;;;;;5.55;2.17;;;;;;;14.52;100.00;100720.88;6070839;29;20128;-88
2022/05/27 07:20:13;;;;;;;5.40;2.53;;;;;;;14.75;100.00;100734.38;6074840;29;20056;-88
2022/05/27 07:23:17;;;;;;;8.77;2.88;;;;;;;14.92;100.00;100732.00;6083729;29;20526;-89
2022/05/27 07:26:21;;;;;;;5.25;2.42;;;;;;;14.90;100.00;100733.94;6063035;29;20044;-88
2022/05/27 07:29:23;;;;;;;5.25;2.10;;;;;;;14.85;100.00;100726.53;6060483;29;20120;-88
2022/05/27 07:32:25;;;;;;;5.15;1.80;;;;;;;14.80;100.00;100724.34;6074897;29;20048;-88
2022/05/27 07:35:27;;;;;;;6.32;2.05;;;;;;;14.74;99.09;100727.56;6074084;29;20096;-89
2022/05/27 07:38:30;;;;;;;4.70;2.55;;;;;;;14.89;100.00;100719.25;6072305;29;20124;-89
2022/05/27 07:41:32;;;;;;;8.63;2.22;;;;;;;14.95;100.00;100708.25;6069467;29;20048;-88
2022/05/27 07:44:35;;;;;;;5.57;1.92;;;;;;;15.04;100.00;100715.19;6057867;29;20041;-88
2022/05/27 07:47:37;;;;;;;7.82;2.20;;;;;;;15.26;100.00;100712.19;6048809;29;20082;-88
2022/05/27 07:50:39;;;;;;;7.25;2.30;;;;;;;15.40;100.00;100715.25;6062704;29;20063;-88
2022/05/27 07:53:41;;;;;;;6.68;2.30;;;;;;;15.16;100.00;100710.63;6064831;29;20048;-88
2022/05/27 07:56:43;;;;;;;6.78;2.33;;;;;;;14.95;100.00;100710.84;6046376;29;20068;-88
2022/05/27 07:59:45;;;;;;;5.65;2.22;;;;;;;14.88;98.98;100712.41;6069157;29;20197;-89
2022/05/27 08:02:47;;;;;;;4.55;2.25;;;;;;;15.14;100.00;100708.16;6062706;29;20068;-88
2022/05/27 08:05:50;;;;;;;4.90;2.10;;;;;;;15.27;99.80;100711.22;6060724;29;20522;-89
2022/05/27 08:08:52;;;;;;;5.07;2.15;;;;;;;15.07;96.99;100728.75;6045906;29;20776;-89
2022/05/27 08:11:55;;;;;;;6.50;2.20;;;;;;;15.25;95.57;100714.94;6070119;29;20135;-88
2022/05/27 08:14:57;;;;;;;4.72;2.22;;;;;;;15.37;90.87;100721.59;6053540;29;20064;-88
2022/05/27 08:18:00;;;;;;;10.18;3.10;;;;;;;15.32;89.07;100716.00;6072638;29;20037;-89
2022/05/27 08:21:01;;;;;;;8.10;2.50;;;;;;;15.60;88.01;100706.34;6052811;29;20608;-89
2022/05/27 08:24:05;;;;;;;6.28;2.03;;;;;;;15.91;87.28;100706.78;6069320;29;20531;-89
2022/05/27 08:27:07;;;;;;;6.05;2.15;;;;;;;15.83;86.13;100708.50;6081076;29;20044;-87
2022/05/27 08:30:12;;;;;;;4.32;2.10;;;;;;;15.78;85.55;100715.97;6063944;29;20052;-88
2022/05/27 08:33:14;;;;;;;8.93;2.50;;;;;;;15.95;86.86;100733.41;6068459;29;20055;-88
2022/05/27 08:39:46;;;;;;;3.67;1.65;;;;;;;15.87;88.47;100721.09;6059965;29;20080;-89
2022/05/27 08:43:09;;;;;;;4.90;2.00;;;;;;;15.55;87.43;100710.34;6071692;29;20047;-90
2022/05/27 08:46:48;;;;;;;4.95;2.13;;;;;;;15.39;90.34;100711.00;6051630;29;20053;-88
2022/05/27 08:50:02;;;;;;;6.47;2.03;;;;;;;15.29;82.30;100711.88;6063461;29;20177;-88
2022/05/27 08:53:16;;;;;;;9.77;2.13;;;;;;;15.46;87.70;100725.09;6051739;29;20049;-89
2022/05/27 08:59:58;;;;;;;6.03;2.00;;;;;;;16.37;78.10;100722.25;6060584;29;20415;-90
2022/05/27 09:03:05;;;;;;;7.60;2.33;;;;;;;16.59;78.72;100723.53;6052929;29;20139;-88
2022/05/27 09:06:08;;;;;;;5.95;1.88;;;;;;;16.49;80.41;100726.25;6072823;29;20037;-89
2022/05/27 09:09:24;;;;;;;7.03;2.38;;;;;;;16.45;78.55;100718.91;6061460;29;20051;-90
2022/05/27 09:12:52;;;;;;;8.73;2.30;;;;;;;16.29;81.25;100711.75;6050468;29;20059;-89
2022/05/27 09:16:09;;;;;;;4.65;2.40;;;;;;;16.08;82.68;100709.50;6056660;29;20495;-88
2022/05/27 09:20:00;;;;;;;5.88;1.90;;;;;;;15.88;78.35;100708.88;6044114;29;20053;-89
2022/05/27 09:23:16;;;;;;;5.53;1.63;;;;;;;16.36;77.89;100702.34;5947017;29;20050;-89
2022/05/27 09:26:24;;;;;;;7.10;2.10;;;;;;;16.62;72.78;100696.25;5965505;29;20596;-88
2022/05/27 09:29:44;;;;;;;6.05;1.80;;;;;;;16.34;72.99;100697.25;5977797;29;20143;-89
2022/05/27 09:32:48;;;;;;;8.93;2.35;;;;;;;15.86;80.96;100710.81;5962168;29;20085;-90
2022/05/27 09:36:02;;;;;;;8.18;2.13;;;;;;;15.51;86.18;100736.72;5967914;29;20050;-89
2022/05/27 09:39:11;;;;;;;11.18;2.97;;;;;;;14.49;100.00;100762.03;5976696;29;20576;-90
2022/05/27 09:42:38;;;;;;;8.52;2.42;;;;;;;13.62;100.00;100763.72;5962736;29;20594;-92
2022/05/27 09:45:40;;;;;;;7.28;2.60;;;;;;;13.50;100.00;100763.00;5955730;29;20520;-93
2022/05/27 09:48:44;;;;;;;7.07;3.03;;;;;;;13.47;100.00;100757.25;5958858;29;20461;-92
2022/05/27 09:51:46;;;;;;;7.35;2.97;;;;;;;13.35;100.00;100739.16;5975732;29;20062;-91
2022/05/27 09:54:52;;;;;;;7.13;2.53;;;;;;;13.17;100.00;100735.53;5966899;29;20053;-92
2022/05/27 09:58:05;;;;;;;7.55;2.92;;;;;;;13.05;100.00;100727.00;6002985;29;20363;-88
2022/05/27 10:01:27;;;;;;;6.30;2.80;;;;;;;13.06;100.00;100722.63;6072160;29;20502;-91
2022/05/27 10:04:29;;;;;;;5.28;2.60;;;;;;;13.20;100.00;100719.66;6082332;29;20054;-93
2022/05/27 10:07:49;;;;;;;4.05;2.63;;;;;;;13.44;100.00;100726.28;6082380;29;20045;-89
2022/05/27 10:11:25;;;;;;;9.20;3.40;;;;;;;13.54;100.00;100721.97;6053543;29;20054;-93
2022/05/27 10:14:34;;;;;;;11.25;3.30;;;;;;;13.71;100.00;100715.22;5991010;29;20399;-93
2022/05/27 10:17:36;;;;;;;7.25;2.65;;;;;;;13.94;100.00;100718.41;5994982;29;20128;-94
2022/05/27 10:20:39;;;;;;;7.68;2.95;;;;;;;14.11;100.00;100702.06;6006653;29;20438;-95
2022/05/27 10:23:45;;;;;;;7.82;2.53;;;;;;;14.47;100.00;100701.44;5991703;29;20122;-96
2022/05/27 10:27:04;;;;;;;5.82;2.22;;;;;;;14.61;100.00;100711.44;5998820;29;20050;-92
2022/05/27 10:30:19;;;;;;;8.20;2.67;;;;;;;14.73;100.00;100709.44;5986795;29;20050;-91
2022/05/27 10:33:24;;;;;;;7.72;2.58;;;;;;;15.28;100.00;100715.47;5998797;29;20062;-94
2022/05/27 10:36:51;;;;;;;8.32;2.88;;;;;;;15.88;100.00;100711.50;6005632;29;20110;-92
2022/05/27 10:40:28;;;;;;;10.32;2.60;;;;;;;16.09;97.01;100714.56;5998883;29;20062;-92
2022/05/27 10:43:50;;;;;;;7.63;2.35;;;;;;;15.89;98.08;100720.94;6004422;29;20058;-92
2022/05/27 10:46:59;;;;;;;10.38;2.63;;;;;;;15.36;96.85;100717.34;5981628;29;20246;-89
2022/05/27 10:50:40;;;;;;;10.70;2.10;;;;;;;14.96;99.07;100720.34;5993596;29;20058;-89
2022/05/27 10:54:04;;;;;;;6.95;2.67;;;;;;;15.13;97.53;100734.34;5927374;29;20058;-90
2022/05/27 11:04:58;;;;;;;;;;;;;;;15.38;86.94;100730.22;5947606;29;20051;-91
2022/05/27 11:08:33;;;;;;;6.13;2.22;;;;;;;15.55;85.54;100726.81;5938840;29;20896;-90
2022/05/27 11:12:16;;;;;;;6.25;2.33;;;;;;;16.01;80.48;100726.75;5929181;29;20170;-91
2022/05/27 11:15:35;;;;;;;8.88;2.15;;;;;;;16.57;73.10;100718.47;5923885;29;20055;-91
2022/05/27 11:18:44;;;;;;;8.68;2.20;;;;;;;16.79;75.73;100698.84;5918124;29;20062;-91
2022/05/27 11:22:05;;;;;;;7.57;2.35;;;;;;;17.05;71.13;100718.06;5918991;29;20704;-90
2022/05/27 11:25:12;;;;;;;;;;;;;;;16.45;73.19;100704.03;5995262;29;20042;-90
2022/05/27 11:28:21;;;;;;;9.07;2.53;;;;;;;16.43;74.82;100716.44;6014784;29;19928;-90
2022/05/27 11:31:56;;;;;;;3.67;1.70;;;;;;;16.37;63.87;100745.78;6017272;29;20116;-90
2022/05/27 11:35:38;;;;;;;10.45;2.15;;;;;;;16.51;67.44;100724.31;5989619;29;20057;-90
2022/05/27 11:38:58;;;;;;;;;;;;;;;16.44;67.00;100735.53;5995874;29;20070;-91
2022/05/27 11:42:24;;;;;;;4.90;1.50;;;;;;;16.18;65.34;100727.69;5993246;29;19939;-90
2022/05/27 11:45:32;;;;;;;4.60;1.67;;;;;;;16.49;60.26;100720.22;6002038;29;20057;-89
2022/05/27 11:48:58;;;;;;;3.85;1.80;;;;;;;16.92;55.74;100727.16;5996554;29;20818;-94
2022/05/27 11:52:09;;;;;;;6.47;2.00;;;;;;;17.26;53.97;100728.06;6025834;29;20472;-93
2022/05/27 11:55:26;;;;;;;7.88;2.03;;;;;;;17.16;55.81;100729.00;6038832;29;20147;-90
2022/05/27 11:59:02;;;;;;;6.18;1.70;;;;;;;17.21;56.30;100720.69;6025390;29;20100;-92
2022/05/27 12:02:16;;;;;;;6.00;1.67;;;;;;;17.13;53.85;100736.38;6031258;29;20566;-90
2022/05/27 12:05:24;;;;;;;3.72;1.40;;;;;;;16.77;57.33;100710.41;6048807;29;20058;-91
2022/05/27 12:08:35;;;;;;;7.38;1.70;;;;;;;17.13;58.40;100723.28;6029008;29;20092;-89
2022/05/27 12:11:44;;;;;;;6.95;1.70;;;;;;;17.32;53.79;100715.19;6038689;29;20828;-89
2022/05/27 12:14:59;;;;;;;6.07;1.52;;;;;;;16.87;55.95;100712.91;6047487;29;20104;-90
2022/05/27 12:18:08;;;;;;;6.15;1.70;;;;;;;16.61;58.23;100732.03;6048695;29;20155;-90
2022/05/27 12:21:22;;;;;;;6.18;2.00;;;;;;;16.29;59.41;100735.28;6070804;29;20052;-89
2022/05/27 12:24:39;;;;;;;5.85;2.05;;;;;;;16.27;63.85;100729.38;6044495;29;20053;-89
2022/05/27 12:27:41;;;;;;;6.03;1.95;;;;;;;16.90;62.03;100743.97;6056698;29;20044;-92
2022/05/27 12:30:45;;;;;;;7.13;1.95;;;;;;;17.31;59.74;100731.03;6059115;29;20056;-91
2022/05/27 12:33:47;;;;;;;6.82;1.98;;;;;;;17.53;56.48;100725.19;6036636;29;20099;-91
2022/05/27 12:36:49;;;;;;;5.55;1.67;;;;;;;17.67;54.15;100708.03;6066999;29;20052;-90
2022/05/27 12:40:13;;;;;;;3.25;1.30;;;;;;;17.89;53.16;100732.78;6062111;29;20467;-91
2022/05/27 12:43:27;;;;;;;7.95;1.80;;;;;;;17.65;55.04;100717.84;6060466;29;20423;-90
2022/05/27 12:46:44;;;;;;;6.75;1.50;;;;;;;17.59;55.17;100721.13;6052808;29;20052;-92
2022/05/27 12:50:25;;;;;;;5.80;1.63;;;;;;;17.86;53.35;100736.53;6050936;29;20080;-90
2022/05/27 12:53:36;;;;;;;;;;;;;;;18.11;51.50;100752.25;5964082;29;20153;-89
2022/05/27 13:03:53;;;;;;;4.80;1.23;;;;;;;18.05;51.88;100748.47;5967573;29;20065;-90
2022/05/27 13:07:05;;;;;;;5.07;1.25;;;;;;;17.49;48.22;100749.22;5976443;29;20596;-92
2022/05/27 13:10:16;;;;;;;4.97;1.50;;;;;;;17.96;50.47;100746.00;5964259;29;20046;-89
2022/05/27 13:13:22;;;;;;;4.75;1.38;;;;;;;17.40;48.68;100749.19;5971652;29;20064;-89
2022/05/27 13:16:59;;;;;;;3.42;1.45;;;;;;;17.62;49.62;100745.16;5974668;29;20129;-89
2022/05/27 13:20:25;;;;;;;3.03;1.15;;;;;;;17.97;50.71;100747.66;5970931;29;20072;-90
2022/05/27 13:23:31;;;;;;;6.35;1.33;;;;;;;18.42;51.26;100727.97;5975010;29;20100;-91
2022/05/27 13:26:38;;;;;;;5.22;1.10;;;;;;;18.08;45.94;100742.88;5997312;29;20155;-90
2022/05/27 13:30:15;;;;;;;4.38;1.13;;;;;;;18.36;49.61;100757.44;6074855;29;20071;-89
2022/05/27 13:33:45;;;;;;;3.92;1.23;;;;;;;18.64;44.59;100756.09;6072775;29;20421;-90
2022/05/27 13:37:00;;;;;;;7.03;1.42;;;;;;;18.55;47.50;100749.22;6077319;29;20088;-91
2022/05/27 13:40:07;;;;;;;4.22;1.20;;;;;;;18.25;49.94;100751.56;6062239;29;20549;-91
2022/05/27 13:43:21;;;;;;;4.05;1.10;;;;;;;18.18;50.14;100750.59;6071366;29;20406;-88
2022/05/27 13:46:29;;;;;;;5.32;1.50;;;;;;;18.49;50.08;100736.78;6063099;29;20048;-91
2022/05/27 13:49:43;;;;;;;4.43;1.40;;;;;;;18.42;47.39;100741.88;6064579;29;20048;-88
2022/05/27 13:52:45;;;;;;;6.18;1.45;;;;;;;17.85;50.64;100755.03;6046243;29;20418;-88
2022/05/27 13:55:52;;;;;;;5.22;1.50;;;;;;;18.08;51.53;100749.94;6049772;29;20418;-89
2022/05/27 13:59:19;;;;;;;4.03;1.00;;;;;;;18.41;49.84;100740.25;6044823;29;20510;-92
2022/05/27 14:02:29;;;;;;;4.88;1.70;;;;;;;18.27;49.87;100743.53;6044283;29;20491;-88
2022/05/27 14:05:35;;;;;;;4.90;1.20;;;;;;;17.83;51.21;100736.03;6068792;29;20040;-91
2022/05/27 14:08:42;;;;;;;5.57;1.48;;;;;;;17.91;53.21;100730.78;6050378;29;20592;-90
2022/05/27 14:11:52;;;;;;;5.45;1.77;;;;;;;18.34;50.98;100754.19;6057432;29;20059;-90
2022/05/27 14:14:55;;;;;;;;;;;;;;;18.78;47.41;100741.50;6078316;29;20104;-90
2022/05/27 14:18:01;;;;;;;4.40;1.23;;;;;;;18.43;49.27;100756.63;6054358;29;20005;-91
2022/05/27 14:24:31;;;;;;;6.65;1.00;;;;;;;17.76;51.19;100788.22;6056209;29;20064;-89
2022/05/27 14:27:42;;;;;;;5.78;1.45;;;;;;;18.17;50.51;100775.16;6057671;29;20053;-90
2022/05/27 14:30:51;;;;;;;5.30;1.40;;;;;;;18.47;51.55;100759.72;6059826;29;20036;-89
2022/05/27 14:33:56;;;;;;;3.78;1.02;;;;;;;18.20;47.66;100769.59;6073079;29;20047;-88
2022/05/27 14:37:23;;;;;;;5.07;1.27;;;;;;;17.40;50.95;100748.38;6071660;29;20045;-90
2022/05/27 14:40:46;;;;;;;3.28;0.80;;;;;;;16.96;47.11;100774.72;6065133;29;20403;-90
2022/05/27 14:43:53;;;;;;;5.10;0.98;;;;;;;17.10;52.57;100758.44;6072528;29;20051;-89
2022/05/27 14:47:22;;;;;;;6.78;1.55;;;;;;;17.65;50.98;100749.25;6054562;29;20191;-90
2022/05/27 14:50:33;;;;;;;6.55;1.40;;;;;;;18.05;49.48;100755.50;6067453;29;20052;-90
2022/05/27 14:53:35;;;;;;;5.40;1.10;;;;;;;18.66;49.62;100761.97;6057053;29;20408;-90
2022/05/27 14:56:37;;;;;;;5.85;2.13;;;;;;;18.75;48.24;100752.28;6052437;29;20055;-89
2022/05/27 14:59:47;;;;;;;5.63;1.50;;;;;;;18.59;49.50;100749.72;6079607;29;20048;-90
2022/05/27 15:02:57;;;;;;;3.60;1.20;;;;;;;19.06;48.94;100764.66;6064428;29;20200;-91
2022/05/27 15:06:22;;;;;;;7.90;1.35;;;;;;;19.14;47.80;100749.69;6072117;29;20104;-89
2022/05/27 15:09:31;;;;;;;3.70;1.20;;;;;;;19.12;47.28;100759.53;6055697;29;20049;-89